Rudd, IA (50471)

1:24 AM CST on January 24, 2017 (GMT -0600)
MSRRI4 | | Change Station
Active Advisory: Winter Storm Warning

Elev 1036 ft 43.05 °N, 92.93 °W | Updated 10 minutes ago

Overcast
Overcast
30.0 °F
Feels Like 30 °F
N
0.0
Wind Variable Wind from North

Today
High -- | Low -- °F
--% Chance of Precip.
Yesterday
High -- | Low -- °F
Precip. -- in
Pressure 29.85 in
Visibility 10.0 miles
Clouds Overcast 1300 ft
Windchill 30 °F
Dew Point 30 °F
Humidity 100%
Rainfall 0.00 in
Snow Depth Not available.
7:34 AM 5:13 PM
Waning Crescent, 13% visible
METAR KCCY 240715Z AUTO 31004KT 10SM OVC013 00/M00 A2985 RMK AO2
Pressure 29.85 in
Visibility 10.0 miles
Clouds Overcast 1300 ft
Windchill 30 °F
Dew Point 30 °F
Humidity 100%
Rainfall 0.00 in
Snow Depth Not available.
7:34 AM 5:13 PM
Waning Crescent, 13% visible
METAR KCCY 240715Z AUTO 31004KT 10SM OVC013 00/M00 A2985 RMK AO2

Get Your Daily Forecast Email!

Thanks for signing up!

Be on the lookout for a verification email in your inbox.

You'll start receiving the daily forecast at 8 AM.

×

10-Day Weather Forecast

Almanac

Astronomy

Jan. 24, 2017 Rise Set
Actual Time
Civil Twilight
Nautical Twilight
Astronomical Twilight
Moon
Length of Visible Light
Length of Day
Tomorrow will be .
, % of the Moon is Illuminated

Today's Extremes

State Highs State Lows

Community

WunderPhotos

Upload Photos

1,962,540 photos uploaded!

WunderBlog® & News

Nearby

Air Quality

  Air Quality AQ Index Pollutant
Not available.

Snow Depth

Station Depth Elevation

Earthquake Activity

City Distance Mag. Time & Date
Minimum magnitude displayed is 2.5.

Coastal Water Temperatures

Place Temperature

Stations

Nearby Weather Stations

Station Location Temp. Windchill Dew Point Humidity Wind Precip. Elev Updated Type
                   

Watches & Warnings

Winter Storm Warning
Issued: 9:15 PM CST Jan. 23, 2017 – National Weather Service

... Winter Storm Warning remains in effect from noon Tuesday to
6 PM CST Wednesday...

* expect snow to develop from south to north Tuesday afternoon
and then gradually diminish Wednesday afternoon.

* The heaviest snowfall rates will occur between 6 PM and
midnight Wednesday... with rates around 1 inch per hour and
some thunder possible.

* Total snow accumulations of 5 to 8 inches are expected... with
locally higher amounts possible.

* Plan on difficult driving conditions... especially given the
very wet nature of the expected snow.

Precautionary/preparedness actions...

A Winter Storm Warning for snow means severe winter weather
conditions are expected. If you must travel... keep an extra
flashlight... food and water in your vehicle in case of an
emergency. The latest Road conditions for the state you are
calling from can be obtained by calling 5 1 1.